createdAt,value
2022-12-11T00:01:34.066Z,-14.13
2022-12-11T00:04:37.091Z,-14.13
2022-12-11T00:07:40.866Z,-14.15
2022-12-11T00:10:50.788Z,-14.16
2022-12-11T00:13:53.685Z,-14.25
2022-12-11T00:16:56.770Z,-14.37
2022-12-11T00:19:59.772Z,-14.53
2022-12-11T00:23:02.900Z,-14.65
2022-12-11T00:26:07.997Z,-14.81
2022-12-11T00:29:15.097Z,-14.88
2022-12-11T00:32:18.607Z,-14.99
2022-12-11T00:35:22.310Z,-14.98
2022-12-11T00:38:25.644Z,-15.03
2022-12-11T00:41:29.279Z,-14.91
2022-12-11T00:44:32.327Z,-14.77
2022-12-11T00:47:35.334Z,-14.74
2022-12-11T00:50:39.334Z,-14.75
2022-12-11T00:53:42.314Z,-14.71
2022-12-11T00:56:45.692Z,-14.69
2022-12-11T00:59:49.276Z,-14.72
2022-12-11T01:02:55.549Z,-14.60
2022-12-11T01:05:58.621Z,-14.54
2022-12-11T01:09:20.511Z,-14.39
2022-12-11T01:12:23.509Z,-14.18
2022-12-11T01:15:31.989Z,-14.05
2022-12-11T01:18:35.812Z,-13.85
2022-12-11T01:21:39.052Z,-13.68
2022-12-11T01:24:42.055Z,-13.57
2022-12-11T01:27:45.832Z,-13.51
2022-12-11T01:30:48.965Z,-13.37
2022-12-11T01:33:55.730Z,-13.33
2022-12-11T01:37:01.177Z,-13.37
2022-12-11T01:40:07.269Z,-13.46
2022-12-11T01:43:12.385Z,-13.47
2022-12-11T01:46:15.362Z,-13.47
2022-12-11T01:49:21.380Z,-13.63
2022-12-11T01:52:25.703Z,-13.77
2022-12-11T01:55:28.908Z,-13.79
2022-12-11T01:58:35.444Z,-13.91
2022-12-11T02:01:57.817Z,-13.93
2022-12-11T02:05:04.400Z,-13.96
2022-12-11T02:08:09.298Z,-13.82
2022-12-11T02:11:21.891Z,-13.65
2022-12-11T02:14:37.794Z,-13.47
2022-12-11T02:18:00.988Z,-13.32
2022-12-11T02:21:32.761Z,-13.15
2022-12-11T02:25:08.076Z,-12.96
2022-12-11T02:28:30.501Z,-12.89
2022-12-11T02:31:36.664Z,-12.83
2022-12-11T02:34:50.018Z,-12.78
2022-12-11T02:37:59.991Z,-12.73
2022-12-11T02:41:05.809Z,-12.66
2022-12-11T02:44:11.410Z,-12.54
2022-12-11T02:47:17.385Z,-12.40
2022-12-11T02:50:24.160Z,-12.43
2022-12-11T02:53:31.419Z,-12.28
2022-12-11T02:56:45.214Z,-12.07
2022-12-11T02:59:50.094Z,-11.87
2022-12-11T03:02:53.342Z,-11.81
2022-12-11T03:05:57.050Z,-11.60
2022-12-11T03:09:00.828Z,-11.53
2022-12-11T03:12:03.998Z,-11.42
2022-12-11T03:15:13.871Z,-11.29
2022-12-11T03:18:43.880Z,-11.23
2022-12-11T03:21:53.778Z,-11.02
2022-12-11T03:25:04.245Z,-10.87
2022-12-11T03:28:16.468Z,-10.71
2022-12-11T03:31:30.406Z,-10.71
2022-12-11T03:34:48.088Z,-10.64
2022-12-11T03:38:00.349Z,-10.46
2022-12-11T03:41:05.895Z,-10.40
2022-12-11T03:44:10.074Z,-10.36
2022-12-11T03:47:18.748Z,-10.32
2022-12-11T03:50:24.989Z,-10.29
2022-12-11T03:53:29.733Z,-10.35
2022-12-11T03:56:36.670Z,-10.40
2022-12-11T03:59:43.697Z,-10.47
2022-12-11T04:03:12.986Z,-10.49
2022-12-11T04:06:17.236Z,-10.32
2022-12-11T04:09:20.861Z,-10.21
2022-12-11T04:12:25.006Z,-10.14
2022-12-11T04:15:28.488Z,-10.12
2022-12-11T04:18:50.954Z,-10.08
2022-12-11T04:22:12.986Z,-10.12
2022-12-11T04:25:16.811Z,-10.08
2022-12-11T04:28:20.622Z,-10.14
2022-12-11T04:31:24.672Z,-10.09
2022-12-11T04:34:28.222Z,-10.18
2022-12-11T04:37:35.009Z,-10.04
2022-12-11T04:40:38.803Z,-10.01
2022-12-11T04:43:45.967Z,-10.07
2022-12-11T04:46:49.947Z,-9.90
2022-12-11T04:49:56.276Z,-9.85
2022-12-11T04:53:00.282Z,-9.81
2022-12-11T04:56:07.497Z,-9.73
2022-12-11T04:59:10.937Z,-9.59
2022-12-11T05:02:15.078Z,-9.53
2022-12-11T05:05:18.824Z,-9.43
2022-12-11T05:08:23.452Z,-9.49
2022-12-11T05:11:27.153Z,-9.53
2022-12-11T05:14:32.669Z,-9.49
2022-12-11T05:17:36.258Z,-9.47
2022-12-11T05:20:39.670Z,-9.57
2022-12-11T05:23:43.945Z,-9.50
2022-12-11T05:26:47.436Z,-9.43
2022-12-11T05:29:54.862Z,-9.32
2022-12-11T05:33:03.132Z,-9.33
2022-12-11T05:36:08.325Z,-9.22
2022-12-11T05:39:12.916Z,-9.32
2022-12-11T05:42:16.682Z,-9.38
2022-12-11T05:45:19.930Z,-9.46
2022-12-11T05:48:24.346Z,-9.42
2022-12-11T05:51:28.949Z,-9.35
2022-12-11T05:54:32.605Z,-9.23
2022-12-11T05:57:36.286Z,-8.98
2022-12-11T06:00:43.114Z,-8.76
2022-12-11T06:03:46.547Z,-8.68
2022-12-11T06:06:50.344Z,-8.79
2022-12-11T06:09:54.094Z,-8.87
2022-12-11T06:12:56.995Z,-8.94
2022-12-11T06:16:09.132Z,-8.95
2022-12-11T06:19:16.170Z,-8.97
2022-12-11T06:22:19.942Z,-8.85
2022-12-11T06:25:23.680Z,-8.90
2022-12-11T06:28:27.940Z,-8.83
2022-12-11T06:31:31.551Z,-8.91
2022-12-11T06:34:35.611Z,-8.87
2022-12-11T06:37:39.837Z,-8.97
2022-12-11T06:40:43.342Z,-8.97
2022-12-11T06:43:46.780Z,-8.98
2022-12-11T06:46:50.969Z,-8.84
2022-12-11T06:49:54.789Z,-8.88
2022-12-11T06:52:58.566Z,-8.87
2022-12-11T06:56:11.385Z,-8.91
2022-12-11T06:59:15.622Z,-8.91
2022-12-11T07:02:22.216Z,-8.91
2022-12-11T07:05:26.316Z,-8.77
2022-12-11T07:08:30.375Z,-8.79
2022-12-11T07:11:34.518Z,-8.94
2022-12-11T07:14:37.578Z,-9.07
2022-12-11T07:17:41.064Z,-9.00
2022-12-11T07:20:44.152Z,-9.02
2022-12-11T07:23:49.546Z,-9.07
2022-12-11T07:26:53.382Z,-9.18
2022-12-11T07:29:57.144Z,-9.18
2022-12-11T07:33:00.785Z,-9.05
2022-12-11T07:36:06.579Z,-9.09
2022-12-11T07:39:12.664Z,-9.15
2022-12-11T07:42:16.851Z,-9.25
2022-12-11T07:45:20.202Z,-9.32
2022-12-11T07:48:23.105Z,-9.43
2022-12-11T07:51:31.924Z,-9.50
2022-12-11T07:54:35.288Z,-9.59
2022-12-11T07:57:38.362Z,-9.52
2022-12-11T08:00:42.011Z,-9.57
2022-12-11T08:03:45.576Z,-9.50
2022-12-11T08:06:49.186Z,-9.43
2022-12-11T08:09:52.661Z,-9.42
2022-12-11T08:12:56.108Z,-9.54
2022-12-11T08:16:00.144Z,-9.57
2022-12-11T08:19:04.008Z,-9.59
2022-12-11T08:22:07.424Z,-9.52
2022-12-11T08:25:11.841Z,-9.56
2022-12-11T08:28:15.685Z,-9.69
2022-12-11T08:31:20.263Z,-9.61
2022-12-11T08:34:23.945Z,-9.56
2022-12-11T08:37:26.977Z,-9.53
2022-12-11T08:40:29.922Z,-9.52
2022-12-11T08:43:35.055Z,-9.63
2022-12-11T08:46:38.814Z,-9.63
2022-12-11T08:49:42.903Z,-9.61
2022-12-11T08:52:48.137Z,-9.61
2022-12-11T08:55:51.952Z,-9.59
2022-12-11T08:58:55.204Z,-9.54
2022-12-11T09:01:58.722Z,-9.49
2022-12-11T09:05:02.497Z,-9.47
2022-12-11T09:08:06.534Z,-9.44
2022-12-11T09:11:16.110Z,-9.46
2022-12-11T09:14:20.227Z,-9.40
2022-12-11T09:17:23.191Z,-9.46
2022-12-11T09:20:26.964Z,-9.44
2022-12-11T09:23:30.229Z,-9.44
2022-12-11T09:26:34.006Z,-9.42
2022-12-11T09:29:37.295Z,-9.38
2022-12-11T09:32:41.596Z,-9.31
2022-12-11T09:35:45.331Z,-9.35
2022-12-11T09:38:49.201Z,-9.33
2022-12-11T09:42:05.654Z,-9.32
2022-12-11T09:45:15.006Z,-9.32
2022-12-11T09:48:23.071Z,-9.31
2022-12-11T09:51:48.511Z,-9.36
2022-12-11T09:54:56.471Z,-9.35
2022-12-11T09:58:12.827Z,-9.38
2022-12-11T10:01:21.088Z,-9.38
2022-12-11T10:04:28.314Z,-9.29
2022-12-11T10:07:37.539Z,-9.28
2022-12-11T10:11:21.584Z,-9.35
2022-12-11T10:15:02.553Z,-9.28
2022-12-11T10:18:13.949Z,-9.21
2022-12-11T10:21:19.197Z,-9.18
2022-12-11T10:28:14.471Z,-9.14
2022-12-11T10:31:33.526Z,-9.18
2022-12-11T10:34:45.959Z,-9.19
2022-12-11T10:37:50.092Z,-9.16
2022-12-11T10:40:58.073Z,-9.07
2022-12-11T10:44:04.679Z,-9.14
2022-12-11T10:47:18.207Z,-9.12
2022-12-11T10:50:25.312Z,-9.15
2022-12-11T10:53:29.953Z,-9.22
2022-12-11T10:56:39.434Z,-9.28
2022-12-11T10:59:51.183Z,-9.33
2022-12-11T11:02:54.534Z,-9.39
2022-12-11T11:06:08.617Z,-9.47
2022-12-11T11:09:37.436Z,-9.59
2022-12-11T11:12:49.265Z,-9.64
2022-12-11T11:16:04.562Z,-9.64
2022-12-11T11:19:08.523Z,-9.88
2022-12-11T11:22:19.413Z,-9.94
2022-12-11T11:25:25.738Z,-10.07
2022-12-11T11:28:35.084Z,-10.07
2022-12-11T11:31:38.144Z,-10.02
2022-12-11T11:34:41.917Z,-10.14
2022-12-11T11:37:59.295Z,-10.37
2022-12-11T11:41:29.970Z,-10.43
2022-12-11T11:44:39.798Z,-10.39
2022-12-11T11:47:54.724Z,-10.49
2022-12-11T11:50:59.207Z,-10.71
2022-12-11T11:54:10.323Z,-10.73
2022-12-11T11:57:43.269Z,-10.70
2022-12-11T12:00:47.191Z,-10.70
2022-12-11T12:03:52.755Z,-10.61
2022-12-11T12:07:35.211Z,-10.54
2022-12-11T12:11:12.448Z,-10.53
2022-12-11T12:18:26.712Z,-10.56
2022-12-11T12:21:37.259Z,-10.58
2022-12-11T12:25:18.011Z,-10.58
2022-12-11T12:28:33.699Z,-10.57
2022-12-11T12:32:27.198Z,-10.64
2022-12-11T12:35:39.021Z,-10.67
2022-12-11T12:39:14.035Z,-10.70
2022-12-11T12:42:23.624Z,-10.70
2022-12-11T12:45:49.929Z,-10.73
2022-12-11T12:48:55.490Z,-10.73
2022-12-11T12:51:59.801Z,-10.81
2022-12-11T12:55:26.157Z,-10.87
2022-12-11T12:58:47.090Z,-10.83
2022-12-11T13:01:57.946Z,-10.83
2022-12-11T13:05:08.320Z,-10.84
2022-12-11T13:08:13.844Z,-10.91
2022-12-11T13:11:19.673Z,-10.89
2022-12-11T13:14:28.602Z,-10.94
2022-12-11T13:17:39.990Z,-10.97
2022-12-11T13:20:52.027Z,-11.02
2022-12-11T13:23:56.337Z,-10.97
2022-12-11T13:27:12.138Z,-10.94
2022-12-11T13:30:15.980Z,-11.02
2022-12-11T13:33:19.955Z,-11.05
2022-12-11T13:36:26.465Z,-11.05
2022-12-11T13:39:36.001Z,-11.10
2022-12-11T13:42:55.400Z,-10.98
2022-12-11T13:46:05.760Z,-10.85
2022-12-11T13:49:23.866Z,-10.92
2022-12-11T13:52:29.163Z,-10.89
2022-12-11T13:55:35.029Z,-10.95
2022-12-11T13:58:40.697Z,-10.97
2022-12-11T14:01:44.052Z,-10.95
2022-12-11T14:04:51.831Z,-10.88
2022-12-11T14:07:59.465Z,-10.81
2022-12-11T14:11:03.813Z,-10.77
2022-12-11T14:14:18.626Z,-10.80
2022-12-11T14:17:34.881Z,-10.81
2022-12-11T14:20:37.943Z,-10.78
2022-12-11T14:23:41.607Z,-10.84
2022-12-11T14:26:52.845Z,-10.83
2022-12-11T14:29:57.312Z,-10.70
2022-12-11T14:33:04.271Z,-10.64
2022-12-11T14:36:08.625Z,-10.57
2022-12-11T14:39:20.710Z,-10.47
2022-12-11T14:42:46.836Z,-10.50
2022-12-11T14:45:58.025Z,-10.46
2022-12-11T14:49:06.598Z,-10.43
2022-12-11T14:52:34.847Z,-10.39
2022-12-11T14:55:41.066Z,-10.35
2022-12-11T14:58:52.737Z,-10.26
2022-12-11T15:02:05.169Z,-10.29
2022-12-11T15:05:20.829Z,-10.37
2022-12-11T15:08:28.894Z,-10.45
2022-12-11T15:11:33.323Z,-10.47
2022-12-11T15:14:36.487Z,-10.57
2022-12-11T15:17:41.510Z,-10.53
2022-12-11T15:20:45.168Z,-10.47
2022-12-11T15:23:57.386Z,-10.43
2022-12-11T15:27:01.795Z,-10.46
2022-12-11T15:30:27.348Z,-10.42
2022-12-11T15:33:34.236Z,-10.30
2022-12-11T15:36:38.742Z,-10.25
2022-12-11T15:39:41.984Z,-10.17
2022-12-11T15:42:45.740Z,-10.05
2022-12-11T15:45:49.495Z,-9.95
2022-12-11T15:48:53.775Z,-9.84
2022-12-11T15:51:57.617Z,-9.82
2022-12-11T15:55:01.386Z,-9.80
2022-12-11T15:58:16.637Z,-9.97
2022-12-11T16:01:21.444Z,-10.05
2022-12-11T16:04:24.707Z,-10.11
2022-12-11T16:07:27.757Z,-10.18
2022-12-11T16:10:31.245Z,-10.24
2022-12-11T16:13:34.893Z,-10.15
2022-12-11T16:16:38.721Z,-10.09
2022-12-11T16:19:43.129Z,-10.07
2022-12-11T16:22:46.129Z,-10.09
2022-12-11T16:25:49.221Z,-10.11
2022-12-11T16:28:52.967Z,-10.25
2022-12-11T16:31:56.321Z,-10.22
2022-12-11T16:35:05.046Z,-10.26
2022-12-11T16:38:08.361Z,-10.28
2022-12-11T16:41:11.337Z,-10.29
2022-12-11T16:44:14.745Z,-10.32
2022-12-11T16:47:17.657Z,-10.36
2022-12-11T16:50:22.006Z,-10.53
2022-12-11T16:53:26.049Z,-10.70
2022-12-11T16:56:29.725Z,-10.77
2022-12-11T16:59:37.054Z,-10.80
2022-12-11T17:02:40.995Z,-10.85
2022-12-11T17:05:45.705Z,-10.91
2022-12-11T17:08:49.157Z,-10.98
2022-12-11T17:11:54.082Z,-10.97
2022-12-11T17:14:57.993Z,-11.00
2022-12-11T17:18:01.635Z,-10.97
2022-12-11T17:21:19.191Z,-11.05
2022-12-11T17:24:23.091Z,-11.22
2022-12-11T17:27:26.034Z,-11.32
2022-12-11T17:30:29.008Z,-11.38
2022-12-11T17:33:31.972Z,-11.29
2022-12-11T17:36:34.949Z,-11.39
2022-12-11T17:39:39.646Z,-11.33
2022-12-11T17:42:45.380Z,-11.35
2022-12-11T17:45:53.280Z,-11.40
2022-12-11T17:48:59.867Z,-11.44
2022-12-11T17:52:03.084Z,-11.46
2022-12-11T17:55:07.662Z,-11.46
2022-12-11T17:58:17.427Z,-11.43
2022-12-11T18:01:21.051Z,-11.44
2022-12-11T18:04:25.054Z,-11.50
2022-12-11T18:07:28.060Z,-11.52
2022-12-11T18:10:31.775Z,-11.59
2022-12-11T18:13:34.940Z,-11.53
2022-12-11T18:16:39.383Z,-11.53
2022-12-11T18:19:46.027Z,-11.63
2022-12-11T18:22:52.151Z,-11.60
2022-12-11T18:25:55.548Z,-11.74
2022-12-11T18:28:58.672Z,-11.78
2022-12-11T18:32:01.608Z,-11.84
2022-12-11T18:35:05.980Z,-11.87
2022-12-11T18:38:09.922Z,-11.87
2022-12-11T18:41:17.807Z,-11.94
2022-12-11T18:44:23.161Z,-11.92
2022-12-11T18:47:27.303Z,-12.02
2022-12-11T18:50:31.055Z,-12.12
2022-12-11T18:53:35.633Z,-12.33
2022-12-11T18:56:39.375Z,-12.36
2022-12-11T18:59:43.363Z,-12.49
2022-12-11T19:02:47.125Z,-12.63
2022-12-11T19:05:50.718Z,-12.74
2022-12-11T19:08:54.450Z,-12.74
2022-12-11T19:11:58.051Z,-12.77
2022-12-11T19:15:01.710Z,-12.77
2022-12-11T19:18:05.970Z,-12.91
2022-12-11T19:21:13.953Z,-13.05
2022-12-11T19:24:21.264Z,-13.04
2022-12-11T19:27:24.560Z,-13.11
2022-12-11T19:30:28.495Z,-13.11
2022-12-11T19:33:31.738Z,-13.22
2022-12-11T19:36:37.485Z,-13.29
2022-12-11T19:39:41.421Z,-13.33
2022-12-11T19:42:45.159Z,-13.27
2022-12-11T19:45:48.868Z,-13.37
2022-12-11T19:48:55.034Z,-13.44
2022-12-11T19:51:58.798Z,-13.50
2022-12-11T19:55:05.483Z,-13.60
2022-12-11T19:58:08.873Z,-13.64
2022-12-11T20:01:26.812Z,-13.68
2022-12-11T20:04:30.199Z,-13.67
2022-12-11T20:07:33.485Z,-13.71
2022-12-11T20:10:37.251Z,-13.81
2022-12-11T20:13:46.250Z,-13.88
2022-12-11T20:20:13.454Z,-13.91
2022-12-11T20:23:17.158Z,-13.98
2022-12-11T20:26:24.889Z,-14.05
2022-12-11T20:29:27.824Z,-14.08
2022-12-11T20:32:31.103Z,-14.10
2022-12-11T20:35:35.062Z,-14.01
2022-12-11T20:38:38.887Z,-13.96
2022-12-11T20:41:42.686Z,-13.89
2022-12-11T20:44:49.174Z,-13.78
2022-12-11T20:47:53.186Z,-13.77
2022-12-11T20:51:01.884Z,-13.70
2022-12-11T20:54:05.664Z,-13.70
2022-12-11T20:57:08.916Z,-13.74
2022-12-11T21:00:13.556Z,-13.92
2022-12-11T21:03:19.518Z,-14.02
2022-12-11T21:06:25.946Z,-14.22
2022-12-11T21:09:30.398Z,-14.30
2022-12-11T21:12:34.273Z,-14.50
2022-12-11T21:15:39.287Z,-14.57
2022-12-11T21:18:44.783Z,-14.63
2022-12-11T21:21:49.614Z,-14.74
2022-12-11T21:24:53.293Z,-14.82
2022-12-11T21:27:57.183Z,-14.86
2022-12-11T21:31:06.469Z,-14.89
2022-12-11T21:34:10.932Z,-14.99
2022-12-11T21:37:13.952Z,-15.06
2022-12-11T21:40:19.683Z,-15.13
2022-12-11T21:43:24.085Z,-15.19
2022-12-11T21:46:29.782Z,-15.22
2022-12-11T21:49:33.549Z,-15.28
2022-12-11T21:52:39.328Z,-15.28
2022-12-11T21:55:43.322Z,-15.36
2022-12-11T21:58:47.058Z,-15.41
2022-12-11T22:01:50.821Z,-15.48
2022-12-11T22:04:55.143Z,-15.50
2022-12-11T22:07:58.870Z,-15.55
2022-12-11T22:11:02.854Z,-15.53
2022-12-11T22:14:07.616Z,-15.51
2022-12-11T22:17:11.576Z,-15.58
2022-12-11T22:20:15.219Z,-15.58
2022-12-11T22:23:19.263Z,-15.58
2022-12-11T22:26:26.378Z,-15.66
2022-12-11T22:29:30.257Z,-15.75
2022-12-11T22:32:34.158Z,-15.72
2022-12-11T22:35:39.440Z,-15.78
2022-12-11T22:38:43.052Z,-15.74
2022-12-11T22:41:47.150Z,-15.83
2022-12-11T22:44:50.155Z,-15.86
2022-12-11T22:47:53.108Z,-15.89
2022-12-11T22:50:56.818Z,-16.00
2022-12-11T22:54:00.884Z,-15.99
2022-12-11T22:57:04.443Z,-16.03
2022-12-11T23:00:14.667Z,-16.06
2022-12-11T23:03:17.810Z,-16.17
2022-12-11T23:06:25.426Z,-16.23
2022-12-11T23:09:28.529Z,-16.17
2022-12-11T23:12:31.713Z,-16.28
2022-12-11T23:15:34.912Z,-16.25
2022-12-11T23:18:38.409Z,-16.30
2022-12-11T23:21:42.629Z,-16.34
2022-12-11T23:24:48.829Z,-16.38
2022-12-11T23:27:52.478Z,-16.37
2022-12-11T23:30:55.992Z,-16.38
2022-12-11T23:33:59.805Z,-16.48
2022-12-11T23:37:04.060Z,-16.56
2022-12-11T23:40:09.602Z,-16.63
2022-12-11T23:43:13.398Z,-16.63
2022-12-11T23:46:23.610Z,-16.66
2022-12-11T23:49:27.497Z,-16.71
2022-12-11T23:52:30.447Z,-16.75
2022-12-11T23:55:33.690Z,-16.85
2022-12-11T23:58:38.825Z,-16.95
